Time;durP1;ratioP1;P1;durP2;ratioP2;P2;SDS_P1;SDS_P2;PMS_P1;PMS_P2;Temp;Humidity;BMP_temperature;BMP_pressure;BME280_temperature;BME280_humidity;BME280_pressure;Samples;Min_cycle;Max_cycle;Signal;HPM_P1;HPM_P2
2022/02/01 00:03:02;;;;;;;4.90;2.20;;;;;;;16.67;50.76;102176.34;5025980;28;20118;-79
2022/02/01 00:05:38;;;;;;;6.63;2.35;;;;;;;16.66;50.73;102182.41;5014228;28;20044;-79
2022/02/01 00:10:59;;;;;;;5.47;2.00;;;;;;;16.66;50.94;102187.63;5020363;28;20411;-79
2022/02/01 00:13:43;;;;;;;4.50;1.98;;;;;;;16.67;50.79;102183.28;4992778;28;20021;-79
2022/02/01 00:16:43;;;;;;;3.75;1.67;;;;;;;16.66;50.57;102179.81;5009276;28;20067;-81
2022/02/01 00:19:40;;;;;;;;;;;;;;;16.68;50.54;102211.03;5021739;28;20029;-80
2022/02/01 00:35:41;;;;;;;4.60;1.58;;;;;;;16.67;50.51;102230.94;5008002;28;20048;-80
2022/02/01 00:40:33;;;;;;;4.95;1.70;;;;;;;16.66;50.46;102165.97;5029742;28;20408;-80
2022/02/01 00:42:59;;;;;;;4.55;1.60;;;;;;;16.64;50.15;102142.53;5000934;28;20471;-78
2022/02/01 00:45:24;;;;;;;5.50;1.70;;;;;;;16.64;50.37;102132.13;5042298;28;20033;-81
2022/02/01 00:47:50;;;;;;;4.78;1.67;;;;;;;16.65;50.42;102133.88;5016823;28;20049;-80
2022/02/01 00:50:16;;;;;;;3.42;1.58;;;;;;;16.65;50.38;102126.06;5027511;28;20027;-79
2022/02/01 00:52:42;;;;;;;4.15;1.70;;;;;;;16.65;50.14;102130.41;5014885;28;20029;-79
2022/02/01 00:55:08;;;;;;;6.72;1.92;;;;;;;16.65;50.62;102141.66;5021992;28;20028;-80
2022/02/01 00:57:34;;;;;;;3.85;1.65;;;;;;;16.65;50.26;102143.41;5021013;28;20030;-79
2022/02/01 00:59:59;;;;;;;5.10;1.77;;;;;;;16.65;50.35;102164.19;5016863;28;20030;-80
2022/02/01 01:02:24;;;;;;;3.58;1.45;;;;;;;16.66;50.33;102158.16;5002192;28;20068;-81
2022/02/01 01:04:50;;;;;;;4.43;1.60;;;;;;;16.65;50.24;102152.06;5029445;28;20033;-80
2022/02/01 01:07:15;;;;;;;5.03;1.65;;;;;;;16.66;50.16;102160.75;4984434;28;20094;-79
2022/02/01 01:09:41;;;;;;;3.42;1.40;;;;;;;16.64;50.08;102152.94;5030072;28;20021;-78
2022/02/01 01:12:07;;;;;;;4.80;2.28;;;;;;;16.64;50.25;102147.72;5025053;28;20076;-79
2022/02/01 01:44:28;;;;;;;3.83;1.50;;;;;;;16.62;49.84;102170.22;5040627;28;20080;-81
2022/02/01 01:55:13;;;;;;;;;;;;;;;16.61;50.02;102147.69;5019290;28;20045;-79
2022/02/01 01:57:39;;;;;;;2.90;1.40;;;;;;;16.62;49.97;102145.97;5015835;28;19909;-81
2022/02/01 02:00:12;;;;;;;2.65;1.25;;;;;;;16.61;50.01;102146.81;5033878;28;20032;-81
2022/02/01 02:02:38;;;;;;;3.47;1.38;;;;;;;16.61;50.08;102158.09;5033901;28;20026;-83
2022/02/01 02:05:04;;;;;;;4.53;1.60;;;;;;;16.61;49.98;102155.50;4999572;28;20032;-79
2022/02/01 02:07:30;;;;;;;2.88;1.33;;;;;;;16.61;49.90;102152.00;4996456;28;20411;-79
2022/02/01 02:09:56;;;;;;;3.90;1.40;;;;;;;16.60;49.94;102153.72;5033537;28;20060;-79
2022/02/01 02:12:48;;;;;;;6.03;1.50;;;;;;;16.60;50.00;102147.66;5023796;28;20111;-81
2022/02/01 02:15:07;;;;;;;3.63;1.50;;;;;;;16.60;49.89;102130.34;5001398;28;20030;-82
2022/02/01 02:17:32;;;;;;;3.17;1.30;;;;;;;16.60;49.86;102137.28;5017012;28;20108;-80
2022/02/01 02:19:58;;;;;;;4.47;1.40;;;;;;;16.59;49.91;102128.59;5012865;28;20075;-79
2022/02/01 02:22:23;;;;;;;4.10;1.55;;;;;;;16.60;49.98;102129.47;5016509;28;20028;-78
2022/02/01 02:24:48;;;;;;;3.75;1.55;;;;;;;16.59;49.94;102123.41;4995910;28;20038;-78
2022/02/01 02:27:15;;;;;;;3.17;1.30;;;;;;;16.59;49.84;102112.13;4996302;28;20369;-79
2022/02/01 02:29:40;;;;;;;3.55;1.42;;;;;;;16.59;50.00;102122.50;5017765;28;20468;-79
2022/02/01 02:32:07;;;;;;;4.30;1.58;;;;;;;16.59;49.66;102119.91;5012636;28;20025;-79
2022/02/01 02:34:32;;;;;;;3.80;1.35;;;;;;;16.58;49.92;102112.97;5014673;28;20036;-78
2022/02/01 02:37:01;;;;;;;4.32;1.50;;;;;;;16.58;49.88;102121.66;4988034;28;20392;-76
2022/02/01 02:39:34;;;;;;;3.40;1.48;;;;;;;16.58;49.82;102116.44;4998515;28;20519;-76
2022/02/01 02:42:28;;;;;;;4.30;1.30;;;;;;;16.59;49.78;102109.50;5051311;28;20025;-77
2022/02/01 02:45:09;;;;;;;;;;;;;;;16.59;49.81;102120.81;5008517;28;20033;-77
2022/02/01 02:47:34;;;;;;;2.90;1.10;;;;;;;16.59;49.90;102104.31;5020739;28;19955;-76
2022/02/01 02:50:01;;;;;;;2.55;1.15;;;;;;;16.57;49.88;102100.81;5002400;28;20495;-77
2022/02/01 02:52:26;;;;;;;5.13;1.60;;;;;;;16.58;49.93;102092.19;5028066;28;20033;-77
2022/02/01 02:54:59;;;;;;;3.88;1.50;;;;;;;16.56;49.83;102079.16;5041515;28;20378;-76
2022/02/01 02:57:26;;;;;;;2.05;1.10;;;;;;;16.57;49.83;102070.53;4999915;28;20037;-77
2022/02/01 02:59:51;;;;;;;5.07;1.90;;;;;;;16.57;49.90;102056.66;5015352;28;20037;-76
2022/02/01 03:02:17;;;;;;;2.72;1.30;;;;;;;16.55;49.75;102048.84;5036891;28;20087;-76
2022/02/01 03:04:42;;;;;;;3.58;1.40;;;;;;;16.56;49.78;102034.13;5048389;28;20490;-76
2022/02/01 03:07:08;;;;;;;3.78;1.50;;;;;;;16.56;49.73;102045.38;4995862;28;20037;-76
2022/02/01 03:09:40;;;;;;;3.58;1.42;;;;;;;16.56;49.86;102032.38;5014088;28;20044;-76
2022/02/01 03:12:06;;;;;;;3.30;1.40;;;;;;;16.56;49.82;102013.34;5023727;28;20399;-76
2022/02/01 03:19:49;;;;;;;4.03;1.50;;;;;;;16.56;49.61;102016.78;5026675;28;20029;-76
2022/02/01 03:20:16;;;;;;;2.83;1.10;;;;;;;16.55;49.70;102007.28;5020563;28;20091;-76
2022/02/01 03:22:41;;;;;;;2.63;1.25;;;;;;;16.55;49.84;102007.28;5030509;28;20023;-78
2022/02/01 03:25:10;;;;;;;4.22;1.60;;;;;;;16.55;49.99;102002.06;5048311;28;20030;-76
2022/02/01 03:27:36;;;;;;;3.40;1.50;;;;;;;16.54;49.92;102000.31;5036417;28;20025;-77
2022/02/01 03:30:02;;;;;;;2.22;1.20;;;;;;;16.54;49.78;101992.50;5011407;28;20033;-77
2022/02/01 03:32:27;;;;;;;4.05;1.40;;;;;;;16.54;49.79;101999.44;5026417;28;20032;-77
2022/02/01 03:34:53;;;;;;;3.50;1.30;;;;;;;16.54;49.64;101989.91;5012057;28;20125;-77
2022/02/01 03:37:20;;;;;;;4.10;1.30;;;;;;;16.54;49.95;101987.31;5010024;28;20025;-77
2022/02/01 03:39:45;;;;;;;4.28;1.50;;;;;;;16.54;49.62;101982.13;5018347;28;20029;-76
2022/02/01 03:42:12;;;;;;;3.50;1.45;;;;;;;16.54;49.79;101986.44;5005447;28;20475;-76
2022/02/01 03:44:38;;;;;;;3.58;1.25;;;;;;;16.54;49.66;101984.72;5030748;28;20025;-77
2022/02/01 03:47:04;;;;;;;3.75;1.40;;;;;;;16.54;49.84;101979.53;5002634;28;20377;-76
2022/02/01 03:49:31;;;;;;;4.20;1.17;;;;;;;16.54;49.77;101976.94;4982117;28;20041;-76
2022/02/01 03:51:58;;;;;;;4.22;1.30;;;;;;;16.53;49.92;101977.78;4984022;28;20030;-77
2022/02/01 03:54:26;;;;;;;2.65;1.20;;;;;;;16.54;49.77;101989.06;4995954;28;20025;-76
2022/02/01 03:56:51;;;;;;;3.58;1.30;;;;;;;16.52;49.76;101981.22;5040569;28;20033;-79
2022/02/01 03:59:18;;;;;;;4.55;1.67;;;;;;;16.53;49.77;101980.38;5012298;28;20032;-76
2022/02/01 04:01:43;;;;;;;3.70;1.50;;;;;;;16.53;49.72;101971.72;5034413;28;20033;-77
2022/02/01 04:04:09;;;;;;;3.67;1.45;;;;;;;16.54;49.77;101973.47;5022381;28;20029;-77
2022/02/01 04:06:34;;;;;;;2.70;1.05;;;;;;;16.53;49.86;101964.81;4990124;28;20026;-76
2022/02/01 04:09:00;;;;;;;4.43;1.20;;;;;;;16.52;49.70;101964.78;5015735;28;20165;-76
2022/02/01 04:11:25;;;;;;;3.65;1.60;;;;;;;16.53;49.76;101971.72;5021393;28;20025;-77
2022/02/01 04:13:50;;;;;;;2.92;1.38;;;;;;;16.53;49.39;101963.94;4998331;28;20037;-77
2022/02/01 04:16:16;;;;;;;5.50;1.52;;;;;;;16.52;49.73;101956.97;5017534;28;20467;-79
2022/02/01 04:18:41;;;;;;;5.18;1.65;;;;;;;16.52;50.06;101954.38;5001345;28;20391;-78
2022/02/01 04:21:06;;;;;;;3.03;1.45;;;;;;;16.52;49.79;101955.25;5000404;28;20041;-78
2022/02/01 04:23:32;;;;;;;3.80;1.23;;;;;;;16.52;49.86;101949.19;5017481;28;20030;-79
2022/02/01 04:25:57;;;;;;;3.38;1.17;;;;;;;16.52;49.81;101950.03;5013133;28;20048;-79
2022/02/01 04:28:23;;;;;;;5.97;1.50;;;;;;;16.52;49.97;101954.38;5000324;28;20092;-79
2022/02/01 04:30:48;;;;;;;3.85;1.55;;;;;;;16.51;49.97;101956.09;5012214;28;20075;-79
2022/02/01 04:33:13;;;;;;;4.05;1.65;;;;;;;16.52;50.00;101955.25;5027326;28;20039;-78
2022/02/01 04:35:40;;;;;;;3.97;1.30;;;;;;;16.51;50.00;101953.50;5007053;28;20040;-78
2022/02/01 04:38:05;;;;;;;3.75;1.50;;;;;;;16.51;49.72;101944.84;5026210;28;20539;-78
2022/02/01 04:40:34;;;;;;;3.10;1.58;;;;;;;16.51;49.85;101937.06;5020784;28;20112;-79
2022/02/01 04:43:00;;;;;;;4.05;1.63;;;;;;;16.51;49.83;101926.66;5037148;28;20030;-76
2022/02/01 04:45:25;;;;;;;3.22;1.35;;;;;;;16.51;49.86;101906.75;5024562;28;20410;-78
2022/02/01 04:47:52;;;;;;;3.83;1.40;;;;;;;16.50;49.80;101909.31;5026673;28;20049;-78
2022/02/01 04:50:22;;;;;;;3.40;1.23;;;;;;;16.50;49.91;101904.13;5017763;28;20029;-78
2022/02/01 04:52:51;;;;;;;4.22;1.58;;;;;;;16.50;49.74;101894.59;5019144;28;20040;-76
2022/02/01 04:55:17;;;;;;;3.05;1.25;;;;;;;16.50;49.75;101888.53;5017314;28;20479;-77
2022/02/01 04:57:55;;;;;;;4.97;1.60;;;;;;;16.50;49.94;101878.13;4981291;28;20033;-78
2022/02/01 05:00:26;;;;;;;5.82;1.52;;;;;;;16.49;49.80;101868.59;5033971;28;20033;-77
2022/02/01 05:02:55;;;;;;;4.18;1.63;;;;;;;16.50;49.93;101862.53;5034205;28;20076;-77
2022/02/01 05:05:28;;;;;;;3.95;1.50;;;;;;;16.49;49.90;101866.88;5034423;28;20028;-76
2022/02/01 05:08:05;;;;;;;6.18;1.30;;;;;;;16.49;50.05;101861.69;4993838;28;20495;-76
2022/02/01 05:10:33;;;;;;;4.68;1.42;;;;;;;16.48;49.87;101846.94;4998720;28;20373;-76
2022/02/01 05:13:20;;;;;;;3.22;1.50;;;;;;;16.48;49.92;101844.31;5001074;28;20037;-77
2022/02/01 05:15:47;;;;;;;2.65;1.20;;;;;;;16.49;49.93;101840.03;5024297;28;20021;-77
2022/02/01 05:18:17;;;;;;;4.38;1.23;;;;;;;16.48;49.61;101841.72;4997467;28;20030;-78
2022/02/01 05:21:11;;;;;;;4.03;1.40;;;;;;;16.49;49.89;101842.63;4966800;28;20034;-77
2022/02/01 05:23:30;;;;;;;4.13;1.50;;;;;;;16.48;49.75;101827.88;5018417;28;20128;-77
2022/02/01 05:25:57;;;;;;;3.25;1.25;;;;;;;16.48;49.88;101823.53;5036156;28;20108;-79
2022/02/01 05:28:23;;;;;;;4.75;1.55;;;;;;;16.48;49.90;101822.69;5007255;28;20387;-77
2022/02/01 05:30:48;;;;;;;7.05;1.60;;;;;;;16.48;49.80;101815.75;4991305;28;20038;-78
2022/02/01 05:33:14;;;;;;;4.38;1.40;;;;;;;16.48;49.98;101805.34;5016633;28;20025;-80
2022/02/01 05:35:39;;;;;;;3.85;1.60;;;;;;;16.48;49.80;101794.09;5005010;28;20064;-78
2022/02/01 05:38:05;;;;;;;3.22;1.10;;;;;;;16.48;50.04;101784.56;5018511;28;20060;-76
2022/02/01 05:40:30;;;;;;;4.13;1.60;;;;;;;16.48;49.76;101776.78;5015447;28;20045;-76
2022/02/01 05:43:06;;;;;;;3.67;1.42;;;;;;;16.49;49.89;101785.47;4999565;28;20093;-75
2022/02/01 05:45:36;;;;;;;5.10;1.80;;;;;;;16.50;49.90;101792.38;4981382;28;20040;-75
2022/02/01 05:48:02;;;;;;;5.13;1.70;;;;;;;16.50;49.93;101779.41;5028210;28;20038;-76
2022/02/01 05:50:31;;;;;;;7.80;2.10;;;;;;;16.51;50.25;101791.56;5012914;28;20084;-76
2022/02/01 05:52:57;;;;;;;5.30;1.70;;;;;;;16.52;50.05;101785.47;4980618;28;20026;-76
2022/02/01 05:55:23;;;;;;;5.55;1.90;;;;;;;16.52;50.38;101770.75;5013813;28;20376;-75
2022/02/01 05:57:49;;;;;;;5.93;1.90;;;;;;;16.52;50.24;101767.28;5003433;28;20017;-76
2022/02/01 06:00:17;;;;;;;4.53;1.80;;;;;;;16.54;50.44;101760.38;5012913;28;20441;-76
2022/02/01 06:02:43;;;;;;;4.55;2.10;;;;;;;16.53;50.52;101756.06;5017332;28;20029;-76
2022/02/01 06:05:08;;;;;;;5.68;1.90;;;;;;;16.55;50.39;101754.31;5015797;28;20518;-78
2022/02/01 06:07:34;;;;;;;4.60;1.73;;;;;;;16.54;50.50;101743.06;5033322;28;20052;-79
2022/02/01 06:09:59;;;;;;;4.32;1.95;;;;;;;16.56;50.46;101741.34;5039514;28;20039;-84
2022/02/01 06:12:25;;;;;;;6.03;2.00;;;;;;;16.61;51.13;101738.78;5017427;28;20128;-77
2022/02/01 06:14:50;;;;;;;6.35;2.10;;;;;;;16.69;51.02;101725.88;5010381;28;20037;-78
2022/02/01 06:17:16;;;;;;;6.93;2.20;;;;;;;16.73;51.06;101731.13;4998056;28;20088;-78
2022/02/01 06:19:41;;;;;;;8.25;2.20;;;;;;;16.74;50.94;101716.38;5015922;28;20501;-79
2022/02/01 06:22:06;;;;;;;6.03;2.10;;;;;;;16.75;51.01;101711.19;5014745;28;20079;-82
2022/02/01 06:24:33;;;;;;;8.98;2.08;;;;;;;16.78;51.15;101718.16;4984016;28;20039;-82
2022/02/01 06:26:58;;;;;;;6.88;1.98;;;;;;;16.82;51.52;101725.16;5033387;28;20148;-76
2022/02/01 06:29:24;;;;;;;7.60;2.33;;;;;;;16.88;51.16;101721.75;5015476;28;20483;-79
2022/02/01 06:31:49;;;;;;;4.95;2.10;;;;;;;16.88;50.77;101712.19;4999193;28;20564;-79
2022/02/01 06:34:15;;;;;;;7.30;2.20;;;;;;;16.91;50.98;101703.56;4999337;28;20235;-82
2022/02/01 06:36:40;;;;;;;4.93;2.35;;;;;;;16.92;50.95;101700.06;5016090;28;20116;-82
2022/02/01 06:39:07;;;;;;;5.28;2.28;;;;;;;16.91;51.01;101709.63;4999405;28;20185;-82
2022/02/01 06:41:35;;;;;;;8.35;2.05;;;;;;;16.90;51.12;101702.69;5015676;28;20191;-82
2022/02/01 06:44:05;;;;;;;4.22;1.90;;;;;;;16.90;51.01;101700.09;5001791;28;20057;-83
2022/02/01 06:46:31;;;;;;;8.35;2.17;;;;;;;16.92;51.04;101706.16;5019185;28;20034;-81
2022/02/01 06:48:57;;;;;;;5.63;2.00;;;;;;;16.92;50.96;101700.06;5003252;28;20041;-86
2022/02/01 06:51:23;;;;;;;4.88;1.95;;;;;;;16.92;51.16;101700.06;5019581;28;20025;-89
2022/02/01 06:53:50;;;;;;;4.13;1.80;;;;;;;16.91;51.05;101694.00;5020489;28;20052;-88
2022/02/01 06:56:22;;;;;;;5.30;2.30;;;;;;;16.92;51.12;101687.06;5002865;28;20033;-76
2022/02/01 06:58:47;;;;;;;6.25;2.15;;;;;;;16.91;51.13;101678.41;5003452;28;20045;-80
2022/02/01 07:01:13;;;;;;;4.85;2.30;;;;;;;16.91;51.47;101681.00;4986605;28;20105;-79
2022/02/01 07:03:38;;;;;;;7.68;2.17;;;;;;;16.92;51.01;101682.78;4986409;28;20030;-80
2022/02/01 07:06:10;;;;;;;6.43;2.15;;;;;;;16.93;51.13;101681.91;4986333;28;20029;-78
2022/02/01 07:08:36;;;;;;;4.13;1.95;;;;;;;16.92;51.01;101672.38;5003902;28;20033;-78
2022/02/01 07:11:01;;;;;;;6.43;2.10;;;;;;;16.93;51.27;101674.09;4986689;28;20479;-78
2022/02/01 07:13:27;;;;;;;5.05;1.90;;;;;;;16.92;50.93;101672.38;5002627;28;20392;-78
2022/02/01 07:15:53;;;;;;;3.90;1.50;;;;;;;16.94;51.11;101661.97;5002481;28;20017;-77
2022/02/01 07:18:18;;;;;;;7.40;1.90;;;;;;;16.93;51.13;101649.84;4986219;28;20475;-77
2022/02/01 07:20:43;;;;;;;5.30;1.60;;;;;;;16.93;51.10;101655.91;5018631;28;20036;-76
2022/02/01 07:23:12;;;;;;;5.32;2.08;;;;;;;16.94;51.03;101643.75;5018702;28;20475;-77
2022/02/01 07:25:45;;;;;;;3.78;1.70;;;;;;;16.94;51.02;101643.75;5002899;28;20120;-77
2022/02/01 07:28:12;;;;;;;4.65;2.00;;;;;;;16.94;51.29;101643.75;5019864;28;20403;-79
2022/02/01 07:30:37;;;;;;;3.80;1.50;;;;;;;16.96;50.89;101626.44;5019415;28;20057;-80
2022/02/01 07:33:03;;;;;;;4.22;1.88;;;;;;;16.96;50.89;101623.84;5018701;28;20505;-79
2022/02/01 07:35:30;;;;;;;3.08;1.40;;;;;;;16.95;50.70;101620.38;5002575;28;20053;-80
2022/02/01 07:37:58;;;;;;;6.53;1.85;;;;;;;16.96;50.89;101608.25;5019264;28;20044;-80
2022/02/01 07:41:17;;;;;;;;;;;;;;;;;;;;;
2022/02/01 07:43:43;;;;;;;3.67;1.50;;;;;;;16.97;50.86;101599.59;5010264;28;20551;-87
2022/02/01 07:46:13;;;;;;;3.92;1.63;;;;;;;16.96;51.01;101606.53;4986963;28;20033;-86
2022/02/01 07:48:38;;;;;;;4.70;1.77;;;;;;;16.98;50.96;101616.91;5003939;28;20053;-87
2022/02/01 07:51:04;;;;;;;4.43;1.58;;;;;;;16.98;51.04;101609.13;5019528;28;20025;-86
2022/02/01 07:53:30;;;;;;;3.33;1.40;;;;;;;16.98;50.76;101607.38;5019519;28;20083;-86
2022/02/01 07:55:55;;;;;;;3.92;1.50;;;;;;;16.98;51.26;101606.53;5002168;28;20034;-87
2022/02/01 07:58:20;;;;;;;2.63;1.20;;;;;;;16.99;50.96;101609.13;5003226;28;20029;-85
2022/02/01 08:00:46;;;;;;;4.47;1.50;;;;;;;16.99;50.79;101597.88;5002617;28;20049;-86
2022/02/01 08:03:12;;;;;;;2.10;1.27;;;;;;;16.99;50.86;101590.94;5002595;28;20021;-86
2022/02/01 08:05:38;;;;;;;3.83;1.40;;;;;;;17.01;50.71;101585.75;5002593;28;20026;-83
2022/02/01 08:08:04;;;;;;;3.58;1.40;;;;;;;17.00;50.90;101581.41;5002438;28;20030;-85
2022/02/01 08:11:08;;;;;;;2.75;1.40;;;;;;;17.01;50.60;101580.56;5003684;28;20124;-86
2022/02/01 08:16:43;;;;;;;2.65;1.17;;;;;;;17.01;50.91;101580.56;5018612;28;20029;-86
2022/02/01 08:21:25;;;;;;;2.83;1.33;;;;;;;17.02;50.72;101571.88;5020254;28;20091;-85
2022/02/01 08:23:50;;;;;;;2.00;1.10;;;;;;;17.03;50.86;101555.44;5003288;28;20429;-77
2022/02/01 08:26:16;;;;;;;2.75;1.20;;;;;;;17.02;50.92;101538.94;5017466;28;20159;-78
2022/02/01 08:28:54;;;;;;;3.05;1.58;;;;;;;17.03;50.83;101543.28;5001245;28;20029;-77
2022/02/01 08:31:19;;;;;;;2.88;1.33;;;;;;;17.04;50.81;101537.22;5017374;28;20120;-80
2022/02/01 08:33:45;;;;;;;2.53;1.17;;;;;;;17.03;50.78;101530.28;5001005;28;20148;-77
2022/02/01 08:36:10;;;;;;;3.08;1.20;;;;;;;17.04;51.02;101518.16;5017302;28;20471;-79
2022/02/01 08:38:39;;;;;;;2.55;1.20;;;;;;;17.03;50.70;101522.47;5000907;28;20111;-78
2022/02/01 08:41:04;;;;;;;2.60;1.40;;;;;;;17.05;50.76;101520.75;5018774;28;20501;-80
2022/02/01 08:43:31;;;;;;;3.22;1.40;;;;;;;17.06;50.95;101517.28;5035195;28;20064;-79
2022/02/01 08:45:58;;;;;;;2.38;1.10;;;;;;;17.05;50.85;101509.50;4984704;28;20033;-77
2022/02/01 08:48:23;;;;;;;3.38;1.30;;;;;;;17.06;51.11;101500.81;4984344;28;20471;-80
2022/02/01 08:50:50;;;;;;;3.03;1.27;;;;;;;17.07;50.88;101489.53;5001427;28;20045;-88
2022/02/01 08:53:19;;;;;;;2.25;1.10;;;;;;;17.06;50.88;101472.22;5035585;28;20031;-87
2022/02/01 08:58:24;;;;;;;2.03;1.20;;;;;;;17.03;50.79;101480.88;5034852;28;20468;-77
2022/02/01 09:00:50;;;;;;;2.80;1.30;;;;;;;17.03;51.08;101464.41;5017306;28;20022;-77
2022/02/01 09:03:16;;;;;;;1.85;0.90;;;;;;;17.01;50.85;101454.00;5016836;28;20033;-78
2022/02/01 09:05:45;;;;;;;3.40;1.38;;;;;;;17.02;51.05;101454.88;5016297;28;20030;-78
2022/02/01 09:08:11;;;;;;;2.75;1.17;;;;;;;17.00;50.77;101438.38;5017118;28;20071;-87
2022/02/01 09:10:36;;;;;;;2.42;1.23;;;;;;;16.99;50.98;101427.13;5016558;28;20037;-78
2022/02/01 09:13:02;;;;;;;2.40;1.17;;;;;;;16.98;50.90;101437.50;5000257;28;20442;-78
2022/02/01 09:15:28;;;;;;;2.50;1.20;;;;;;;16.97;51.07;101434.06;4984142;28;20386;-86
2022/02/01 09:17:55;;;;;;;2.47;1.20;;;;;;;16.97;51.01;101421.06;5000750;28;20083;-79
2022/02/01 09:20:20;;;;;;;2.78;1.23;;;;;;;16.95;51.05;101417.59;5000265;28;20399;-77
2022/02/01 09:22:47;;;;;;;2.53;1.20;;;;;;;16.95;50.86;101409.78;4983903;28;20076;-77
2022/02/01 09:25:15;;;;;;;2.83;1.38;;;;;;;16.95;51.09;101403.72;5017337;28;20032;-78
2022/02/01 09:27:40;;;;;;;2.70;1.20;;;;;;;16.94;51.02;101412.38;5000478;28;20467;-78
2022/02/01 09:30:06;;;;;;;2.47;1.13;;;;;;;16.94;50.99;101405.47;5016461;28;20033;-77
2022/02/01 09:32:32;;;;;;;3.40;1.27;;;;;;;16.93;51.13;101408.91;5000737;28;20083;-78
2022/02/01 09:34:57;;;;;;;1.65;1.05;;;;;;;16.93;50.90;101416.72;5016533;28;20034;-78
2022/02/01 09:37:23;;;;;;;2.33;1.17;;;;;;;16.93;51.19;101436.66;4983809;28;20033;-76
2022/02/01 09:39:50;;;;;;;3.13;1.17;;;;;;;16.92;50.98;101422.78;4983894;28;20033;-76
2022/02/01 09:42:16;;;;;;;2.63;1.10;;;;;;;16.93;51.21;101432.31;5016853;28;20029;-77
2022/02/01 09:44:42;;;;;;;3.20;1.40;;;;;;;16.93;51.17;101429.72;4999956;28;20116;-77
2022/02/01 09:47:08;;;;;;;4.65;1.38;;;;;;;16.92;51.00;101433.19;5034095;28;20052;-79
2022/02/01 09:49:33;;;;;;;2.78;1.33;;;;;;;16.93;51.00;101436.66;4983659;28;20033;-77
2022/02/01 09:51:59;;;;;;;2.70;1.20;;;;;;;16.91;51.00;101435.78;4983567;28;20476;-77
2022/02/01 09:54:29;;;;;;;3.20;1.30;;;;;;;16.91;51.04;101423.63;4999998;28;20030;-78
2022/02/01 09:56:57;;;;;;;2.03;1.13;;;;;;;16.91;50.90;101410.63;5015887;28;20475;-79
2022/02/01 09:59:33;;;;;;;3.10;1.50;;;;;;;16.91;51.13;101423.63;4999671;28;20033;-78
2022/02/01 10:02:16;;;;;;;2.70;1.35;;;;;;;16.90;50.98;101426.22;5015754;28;20021;-79
2022/02/01 10:04:42;;;;;;;3.38;1.27;;;;;;;16.90;50.96;101429.72;5022605;28;20068;-83
2022/02/01 10:07:13;;;;;;;2.75;1.20;;;;;;;16.88;50.99;101408.03;5054463;28;20030;-84
2022/02/01 10:09:52;;;;;;;4.40;1.40;;;;;;;16.90;50.91;101421.91;5026937;28;20041;-86
2022/02/01 10:12:19;;;;;;;4.57;1.42;;;;;;;16.88;50.94;101404.59;5024525;28;20129;-86
2022/02/01 10:15:02;;;;;;;3.58;1.52;;;;;;;16.89;50.83;101404.56;5038506;28;20027;-80
2022/02/01 10:17:41;;;;;;;2.83;1.27;;;;;;;16.89;50.99;101408.91;5038723;28;20490;-81
2022/02/01 10:20:07;;;;;;;3.35;1.42;;;;;;;16.91;50.89;101414.97;5042025;28;20109;-81
2022/02/01 10:22:35;;;;;;;2.67;1.30;;;;;;;16.88;50.62;101408.03;5042907;28;20061;-87
2022/02/01 10:25:04;;;;;;;3.70;1.38;;;;;;;16.89;51.19;101390.69;5043113;28;20163;-86
2022/02/01 10:27:34;;;;;;;3.65;1.48;;;;;;;16.88;50.79;101391.59;5023584;28;20081;-86
2022/02/01 10:30:17;;;;;;;2.95;1.58;;;;;;;16.90;50.94;101388.13;5057453;28;20032;-86
2022/02/01 10:35:35;;;;;;;4.15;1.50;;;;;;;16.89;51.03;101390.69;5050377;28;20364;-86
2022/02/01 10:38:09;;;;;;;3.22;1.50;;;;;;;16.88;50.70;101392.44;5026718;28;20175;-84
2022/02/01 10:40:42;;;;;;;3.13;1.55;;;;;;;16.88;50.83;101396.78;5030702;28;20012;-81
2022/02/01 10:43:42;;;;;;;3.45;1.45;;;;;;;16.88;50.82;101400.25;5038532;28;20025;-79
2022/02/01 10:46:12;;;;;;;2.88;1.35;;;;;;;16.87;50.79;101401.09;4941312;29;20027;-78
2022/02/01 10:48:45;;;;;;;3.47;1.50;;;;;;;16.87;50.67;101390.69;5005880;28;20049;-77
2022/02/01 10:51:14;;;;;;;4.15;1.38;;;;;;;16.87;50.65;101401.09;5019615;28;20028;-76
2022/02/01 10:53:40;;;;;;;3.08;1.30;;;;;;;16.87;50.80;101403.69;5019201;28;20387;-77
2022/02/01 10:56:12;;;;;;;2.45;1.25;;;;;;;16.87;50.73;101401.09;5019276;28;20021;-79
2022/02/01 10:58:38;;;;;;;3.22;1.50;;;;;;;16.87;50.99;101398.50;5019145;28;20071;-79
2022/02/01 11:01:05;;;;;;;3.08;1.40;;;;;;;16.85;50.73;101390.72;5036931;28;20022;-77
2022/02/01 11:03:31;;;;;;;4.22;1.30;;;;;;;16.85;50.72;101395.91;5003129;28;20037;-78
2022/02/01 11:05:57;;;;;;;3.22;1.38;;;;;;;16.86;50.55;101388.97;5018856;28;20391;-77
2022/02/01 11:08:26;;;;;;;2.60;1.55;;;;;;;16.86;50.48;101381.16;5002440;28;20026;-77
2022/02/01 11:10:56;;;;;;;3.63;1.30;;;;;;;16.88;50.77;101376.00;5018861;28;20017;-79
2022/02/01 11:13:34;;;;;;;3.17;1.35;;;;;;;16.86;50.69;101382.03;5019067;28;20036;-78
2022/02/01 11:16:25;;;;;;;4.72;1.38;;;;;;;16.86;50.65;101368.19;5018810;28;20080;-81
2022/02/01 11:19:02;;;;;;;3.80;1.35;;;;;;;16.86;50.69;101363.84;5018594;28;20034;-79
2022/02/01 11:21:28;;;;;;;2.65;1.40;;;;;;;16.85;50.50;101356.91;5036285;28;20476;-78
2022/02/01 11:24:01;;;;;;;4.53;1.50;;;;;;;16.86;50.58;101342.19;4986178;28;20045;-80
2022/02/01 11:26:37;;;;;;;3.78;1.42;;;;;;;16.86;50.66;101339.59;5003095;28;20029;-79
2022/02/01 11:29:51;;;;;;;2.65;1.27;;;;;;;16.86;50.50;101340.44;5036348;28;20112;-81
2022/02/01 11:32:18;;;;;;;4.10;1.60;;;;;;;16.86;50.66;101331.78;5018602;28;20021;-79
2022/02/01 11:34:44;;;;;;;3.15;1.27;;;;;;;16.85;50.53;101323.13;5036337;28;20491;-80
2022/02/01 11:37:13;;;;;;;3.58;1.17;;;;;;;16.87;50.62;101333.50;5018711;28;20029;-80
2022/02/01 11:39:50;;;;;;;2.63;1.42;;;;;;;16.87;50.60;101341.31;5035928;28;20112;-77
2022/02/01 11:42:16;;;;;;;5.78;1.60;;;;;;;16.86;50.71;101340.44;5018335;28;20021;-79
2022/02/01 11:44:42;;;;;;;3.42;1.33;;;;;;;16.86;50.63;101345.63;5018387;28;20479;-78
2022/02/01 11:47:13;;;;;;;3.00;1.30;;;;;;;16.86;50.66;101339.59;5001815;28;20049;-77
2022/02/01 11:50:00;;;;;;;3.50;1.30;;;;;;;16.86;50.39;101335.25;5018567;28;20026;-77
2022/02/01 11:52:27;;;;;;;3.58;1.42;;;;;;;16.87;50.55;101328.31;5019282;28;20025;-87
2022/02/01 11:55:02;;;;;;;4.10;1.60;;;;;;;16.86;50.57;101329.19;5026850;28;20053;-87
2022/02/01 11:57:34;;;;;;;3.70;1.48;;;;;;;16.86;50.63;101314.44;5045146;28;20025;-86
2022/02/01 12:00:16;;;;;;;3.17;1.40;;;;;;;16.87;50.60;101323.09;5028325;28;20084;-86
2022/02/01 12:02:48;;;;;;;3.95;1.50;;;;;;;16.86;50.69;101306.66;5019804;28;20379;-78
2022/02/01 12:05:17;;;;;;;3.33;1.30;;;;;;;16.86;50.70;101298.00;5017984;28;20028;-79
2022/02/01 12:08:05;;;;;;;5.43;1.80;;;;;;;16.86;50.18;101282.41;5018415;28;20468;-77
2022/02/01 12:10:32;;;;;;;4.05;1.58;;;;;;;16.86;50.52;101285.84;5034321;28;20029;-77
2022/02/01 12:13:00;;;;;;;3.47;1.48;;;;;;;16.86;50.49;101298.00;5001453;28;20025;-77
2022/02/01 12:19:00;;;;;;;3.58;1.33;;;;;;;16.87;50.39;101302.31;5035720;28;20065;-77
2022/02/01 12:21:25;;;;;;;2.13;1.08;;;;;;;16.87;50.46;101304.91;5017564;28;20055;-78
2022/02/01 12:23:52;;;;;;;4.65;1.63;;;;;;;16.88;50.58;101300.59;5017607;28;20022;-77
2022/02/01 12:26:20;;;;;;;3.03;1.40;;;;;;;16.86;50.53;101287.59;5017938;28;20091;-77
2022/02/01 12:28:46;;;;;;;3.00;1.35;;;;;;;16.85;50.54;101298.84;5017340;28;20117;-77
2022/02/01 12:31:13;;;;;;;3.72;1.50;;;;;;;16.86;50.78;101304.06;4985855;28;20567;-87
2022/02/01 12:33:44;;;;;;;3.08;1.38;;;;;;;16.87;50.44;101307.50;5018258;28;20025;-86
2022/02/01 12:36:12;;;;;;;3.78;1.38;;;;;;;16.87;50.63;101291.91;5018451;28;20024;-86
2022/02/01 12:38:40;;;;;;;2.20;1.17;;;;;;;16.86;50.52;101292.78;4985524;28;20053;-85
2022/02/01 12:41:15;;;;;;;3.88;1.35;;;;;;;16.86;50.45;101275.47;5017991;28;20037;-86
2022/02/01 12:46:43;;;;;;;3.67;1.40;;;;;;;16.88;50.63;101274.59;5035600;28;20486;-86
2022/02/01 12:49:09;;;;;;;2.58;1.45;;;;;;;16.87;50.45;101263.31;5001731;28;20034;-87
2022/02/01 12:51:46;;;;;;;3.80;1.40;;;;;;;16.87;50.41;101271.13;4985099;28;20029;-86
2022/02/01 12:54:28;;;;;;;3.47;1.40;;;;;;;16.88;50.56;101275.47;5017684;28;20017;-87